CheckWX is a tool to help pilots better visualize weather data.  It is not intended as a substitute for an official pre-flight weather briefing.

23:01:39 UTC

LKMT METAR
Ostrava Leos Janáček Airport
Ostrava, Czech Republic
Current

32 mins ago

LKMT 192230Z 24005KT CAVOK 17/16 Q1017 NOSIG
Observed
Jul-19 @ 22:30 UTC
Wind
  • 240° at 5 KTS
Visibility
10,000+ meters
Flight Rules
VFR
Cloud Levels
  • Clear skies
Temperature
17°C / 63°F
Dewpoint
16°C / 61°F
Humidity
94%
Altimeter
30.03" Hg
Pressure
1016.92 hPa
Previous

44 mins ago

LKMT 192218Z 23006KT CAVOK 17/16 Q1017 RMK REG QNH 1014
Observed
Jul-19 @ 22:18 UTC
Wind
  • 230° at 6 KTS
Visibility
10,000+ meters
Flight Rules
VFR
Cloud Levels
  • Clear skies
Temperature
17°C / 63°F
Dewpoint
16°C / 61°F
Humidity
94%
Altimeter
30.03" Hg
Pressure
1016.92 hPa
Previous

1 hour ago

LKMT 192200Z 23005KT 9999 -SHRA NSC 17/16 Q1017 NOSIG
Observed
Jul-19 @ 22:00 UTC
Wind
  • 230° at 5 KTS
Visibility
10,000+ meters
Flight Rules
VFR
Conditions
Light Rain
Cloud Levels
  • Clear skies
Temperature
17°C / 63°F
Dewpoint
16°C / 61°F
Humidity
94%
Altimeter
30.03" Hg
Pressure
1016.92 hPa